To NAV CANADA Home Page Login to a new session Search on AWWS site Feedback and Comments Disclaimer Vers la page française équivalente Tips FAQ What's new on the site To the Forecasts and Observations / NOTAM section To "File a Flight Plan" website Publications and other links Update of the User's profile FIC Telephone Numbers My Weather Data Folder Route Weather Data Regional Weather Data Local Weather Data To the Forecasts and Observations / NOTAM section
Request Generated 04/23/2014 at 10:17:30 UTC . Weather information available at that time is displayed.

METAR/TAF

MAYO/YT    

METAR CYMA 231000Z 08006KT 010V090 20SM OVC050 03/M07 A2983 RMK SC8
SLP125=
METAR CYMA 230900Z 01005KT 20SM OVC050 03/M06 A2983 RMK SC8 SLP125=
METAR CYMA 230800Z 36007KT 20SM BKN050 OVC080 03/M07 A2982 RMK SC6AS2
SLP123=

TAF CYMA 230538Z 2306/2318 36008KT P6SM BKN050
RMK NXT FCST BY 231200Z=
Your time UTC time
Weather data provided by Environment Canada and NAV CANADA